sensor_id;sensor_type;location;lat;lon;timestamp;P1;durP1;ratioP1;P2;durP2;ratioP2
46643;SDS011;32371;51.032;5.816;2023-04-03T00:00:25;6.22;;;1.95;;
46643;SDS011;32371;51.032;5.816;2023-04-03T00:02:50;3.17;;;2.13;;
46643;SDS011;32371;51.032;5.816;2023-04-03T00:05:15;4.45;;;2.05;;
46643;SDS011;32371;51.032;5.816;2023-04-03T00:07:41;6.22;;;2.53;;
46643;SDS011;32371;51.032;5.816;2023-04-03T00:10:07;3.70;;;1.85;;
46643;SDS011;32371;51.032;5.816;2023-04-03T00:12:33;4.50;;;1.73;;
46643;SDS011;32371;51.032;5.816;2023-04-03T00:14:58;3.40;;;1.73;;
46643;SDS011;32371;51.032;5.816;2023-04-03T00:17:23;5.13;;;3.08;;
46643;SDS011;32371;51.032;5.816;2023-04-03T00:19:49;2.28;;;2.08;;
46643;SDS011;32371;51.032;5.816;2023-04-03T00:22:14;2.83;;;2.17;;
46643;SDS011;32371;51.032;5.816;2023-04-03T00:24:40;3.50;;;2.00;;
46643;SDS011;32371;51.032;5.816;2023-04-03T00:27:05;3.35;;;2.17;;
46643;SDS011;32371;51.032;5.816;2023-04-03T00:29:31;2.42;;;1.80;;
46643;SDS011;32371;51.032;5.816;2023-04-03T00:31:56;2.92;;;2.03;;
46643;SDS011;32371;51.032;5.816;2023-04-03T00:34:21;3.45;;;2.03;;
46643;SDS011;32371;51.032;5.816;2023-04-03T00:36:47;2.45;;;2.03;;
46643;SDS011;32371;51.032;5.816;2023-04-03T00:39:12;3.97;;;2.63;;
46643;SDS011;32371;51.032;5.816;2023-04-03T00:41:37;10.38;;;2.30;;
46643;SDS011;32371;51.032;5.816;2023-04-03T00:44:22;4.85;;;2.40;;
46643;SDS011;32371;51.032;5.816;2023-04-03T00:47:09;5.55;;;2.72;;
46643;SDS011;32371;51.032;5.816;2023-04-03T00:49:36;6.47;;;2.28;;
46643;SDS011;32371;51.032;5.816;2023-04-03T00:52:02;2.33;;;1.83;;
46643;SDS011;32371;51.032;5.816;2023-04-03T00:54:28;5.50;;;2.33;;
46643;SDS011;32371;51.032;5.816;2023-04-03T00:56:54;5.72;;;2.40;;
46643;SDS011;32371;51.032;5.816;2023-04-03T00:59:24;5.03;;;2.35;;
46643;SDS011;32371;51.032;5.816;2023-04-03T01:01:52;2.42;;;2.13;;
46643;SDS011;32371;51.032;5.816;2023-04-03T01:06:56;4.72;;;2.10;;
46643;SDS011;32371;51.032;5.816;2023-04-03T01:09:23;2.33;;;2.13;;
46643;SDS011;32371;51.032;5.816;2023-04-03T01:11:48;4.25;;;2.38;;
46643;SDS011;32371;51.032;5.816;2023-04-03T01:14:14;2.88;;;2.13;;
46643;SDS011;32371;51.032;5.816;2023-04-03T01:16:39;3.08;;;2.00;;
46643;SDS011;32371;51.032;5.816;2023-04-03T01:19:08;3.05;;;2.00;;
46643;SDS011;32371;51.032;5.816;2023-04-03T01:24:31;2.25;;;1.67;;
46643;SDS011;32371;51.032;5.816;2023-04-03T01:26:58;2.67;;;1.95;;
46643;SDS011;32371;51.032;5.816;2023-04-03T01:29:24;4.82;;;2.15;;
46643;SDS011;32371;51.032;5.816;2023-04-03T01:31:51;3.40;;;2.08;;
46643;SDS011;32371;51.032;5.816;2023-04-03T01:34:35;2.65;;;2.13;;
46643;SDS011;32371;51.032;5.816;2023-04-03T01:37:00;1.52;;;1.35;;
46643;SDS011;32371;51.032;5.816;2023-04-03T01:39:26;2.38;;;2.13;;
46643;SDS011;32371;51.032;5.816;2023-04-03T01:41:51;2.55;;;1.48;;
46643;SDS011;32371;51.032;5.816;2023-04-03T01:44:18;2.53;;;2.03;;
46643;SDS011;32371;51.032;5.816;2023-04-03T01:46:44;8.57;;;2.47;;
46643;SDS011;32371;51.032;5.816;2023-04-03T01:49:09;3.35;;;1.70;;
46643;SDS011;32371;51.032;5.816;2023-04-03T01:51:35;5.18;;;2.35;;
46643;SDS011;32371;51.032;5.816;2023-04-03T01:54:00;6.38;;;2.30;;
46643;SDS011;32371;51.032;5.816;2023-04-03T01:56:26;5.65;;;2.53;;
46643;SDS011;32371;51.032;5.816;2023-04-03T01:58:51;2.78;;;2.25;;
46643;SDS011;32371;51.032;5.816;2023-04-03T02:01:17;2.80;;;2.53;;
46643;SDS011;32371;51.032;5.816;2023-04-03T02:03:42;2.75;;;1.88;;
46643;SDS011;32371;51.032;5.816;2023-04-03T02:06:08;5.18;;;2.28;;
46643;SDS011;32371;51.032;5.816;2023-04-03T02:08:33;5.85;;;2.53;;
46643;SDS011;32371;51.032;5.816;2023-04-03T02:10:58;6.68;;;3.17;;
46643;SDS011;32371;51.032;5.816;2023-04-03T02:13:24;3.30;;;1.92;;
46643;SDS011;32371;51.032;5.816;2023-04-03T02:15:49;2.35;;;1.77;;
46643;SDS011;32371;51.032;5.816;2023-04-03T02:18:15;3.38;;;2.58;;
46643;SDS011;32371;51.032;5.816;2023-04-03T02:20:41;3.38;;;2.03;;
46643;SDS011;32371;51.032;5.816;2023-04-03T02:23:06;3.47;;;2.25;;
46643;SDS011;32371;51.032;5.816;2023-04-03T02:25:32;3.10;;;2.05;;
46643;SDS011;32371;51.032;5.816;2023-04-03T02:27:58;4.07;;;2.30;;
46643;SDS011;32371;51.032;5.816;2023-04-03T02:30:23;4.97;;;2.40;;
46643;SDS011;32371;51.032;5.816;2023-04-03T02:32:49;4.75;;;2.28;;
46643;SDS011;32371;51.032;5.816;2023-04-03T02:35:14;3.25;;;2.40;;
46643;SDS011;32371;51.032;5.816;2023-04-03T02:37:40;4.60;;;2.30;;
46643;SDS011;32371;51.032;5.816;2023-04-03T02:40:06;2.63;;;2.10;;
46643;SDS011;32371;51.032;5.816;2023-04-03T02:42:32;4.22;;;2.13;;
46643;SDS011;32371;51.032;5.816;2023-04-03T02:44:58;3.40;;;2.53;;
46643;SDS011;32371;51.032;5.816;2023-04-03T02:47:25;5.57;;;2.63;;
46643;SDS011;32371;51.032;5.816;2023-04-03T02:49:51;3.97;;;2.58;;
46643;SDS011;32371;51.032;5.816;2023-04-03T02:52:17;5.60;;;2.95;;
46643;SDS011;32371;51.032;5.816;2023-04-03T02:54:43;4.10;;;2.83;;
46643;SDS011;32371;51.032;5.816;2023-04-03T02:57:08;4.13;;;3.20;;
46643;SDS011;32371;51.032;5.816;2023-04-03T02:59:35;6.15;;;2.80;;
46643;SDS011;32371;51.032;5.816;2023-04-03T03:02:01;3.63;;;2.50;;
46643;SDS011;32371;51.032;5.816;2023-04-03T03:04:27;4.30;;;2.83;;
46643;SDS011;32371;51.032;5.816;2023-04-03T03:06:52;5.22;;;3.38;;
46643;SDS011;32371;51.032;5.816;2023-04-03T03:09:17;5.15;;;3.20;;
46643;SDS011;32371;51.032;5.816;2023-04-03T03:11:43;5.40;;;2.97;;
46643;SDS011;32371;51.032;5.816;2023-04-03T03:14:09;4.13;;;2.70;;
46643;SDS011;32371;51.032;5.816;2023-04-03T03:16:34;2.95;;;2.30;;
46643;SDS011;32371;51.032;5.816;2023-04-03T03:19:00;5.45;;;2.40;;
46643;SDS011;32371;51.032;5.816;2023-04-03T03:21:25;5.72;;;3.00;;
46643;SDS011;32371;51.032;5.816;2023-04-03T03:23:51;2.95;;;2.63;;
46643;SDS011;32371;51.032;5.816;2023-04-03T03:26:16;4.43;;;3.17;;
46643;SDS011;32371;51.032;5.816;2023-04-03T03:28:41;4.43;;;3.42;;
46643;SDS011;32371;51.032;5.816;2023-04-03T03:31:10;5.47;;;3.78;;
46643;SDS011;32371;51.032;5.816;2023-04-03T03:33:35;8.38;;;3.40;;
46643;SDS011;32371;51.032;5.816;2023-04-03T03:36:01;4.22;;;3.15;;
46643;SDS011;32371;51.032;5.816;2023-04-03T03:38:26;6.07;;;3.25;;
46643;SDS011;32371;51.032;5.816;2023-04-03T03:40:53;7.60;;;3.95;;
46643;SDS011;32371;51.032;5.816;2023-04-03T03:43:18;6.82;;;3.75;;
46643;SDS011;32371;51.032;5.816;2023-04-03T03:45:46;4.32;;;3.03;;
46643;SDS011;32371;51.032;5.816;2023-04-03T03:48:15;7.43;;;2.75;;
46643;SDS011;32371;51.032;5.816;2023-04-03T03:50:40;4.70;;;3.30;;
46643;SDS011;32371;51.032;5.816;2023-04-03T03:53:06;5.30;;;3.63;;
46643;SDS011;32371;51.032;5.816;2023-04-03T03:55:31;5.50;;;3.40;;
46643;SDS011;32371;51.032;5.816;2023-04-03T03:57:56;4.20;;;2.63;;
46643;SDS011;32371;51.032;5.816;2023-04-03T04:00:22;3.70;;;3.03;;
46643;SDS011;32371;51.032;5.816;2023-04-03T04:02:47;5.55;;;3.33;;
46643;SDS011;32371;51.032;5.816;2023-04-03T04:05:13;3.90;;;2.72;;
46643;SDS011;32371;51.032;5.816;2023-04-03T04:07:38;5.28;;;3.33;;
46643;SDS011;32371;51.032;5.816;2023-04-03T04:10:04;3.63;;;3.08;;
46643;SDS011;32371;51.032;5.816;2023-04-03T04:12:30;6.65;;;3.53;;
46643;SDS011;32371;51.032;5.816;2023-04-03T04:14:55;6.93;;;3.75;;
46643;SDS011;32371;51.032;5.816;2023-04-03T04:17:21;3.70;;;2.72;;
46643;SDS011;32371;51.032;5.816;2023-04-03T04:19:46;8.93;;;3.30;;
46643;SDS011;32371;51.032;5.816;2023-04-03T04:22:12;5.38;;;4.05;;
46643;SDS011;32371;51.032;5.816;2023-04-03T04:24:37;9.52;;;4.68;;
46643;SDS011;32371;51.032;5.816;2023-04-03T04:27:02;8.45;;;4.00;;
46643;SDS011;32371;51.032;5.816;2023-04-03T04:29:28;6.88;;;3.80;;
46643;SDS011;32371;51.032;5.816;2023-04-03T04:31:53;7.47;;;4.13;;
46643;SDS011;32371;51.032;5.816;2023-04-03T04:34:18;9.07;;;4.07;;
46643;SDS011;32371;51.032;5.816;2023-04-03T04:36:44;9.30;;;3.72;;
46643;SDS011;32371;51.032;5.816;2023-04-03T04:39:10;4.95;;;3.85;;
46643;SDS011;32371;51.032;5.816;2023-04-03T04:41:35;7.68;;;4.10;;
46643;SDS011;32371;51.032;5.816;2023-04-03T04:44:01;11.75;;;4.50;;
46643;SDS011;32371;51.032;5.816;2023-04-03T04:46:26;8.77;;;4.78;;
46643;SDS011;32371;51.032;5.816;2023-04-03T04:48:52;5.57;;;4.18;;
46643;SDS011;32371;51.032;5.816;2023-04-03T04:51:17;11.98;;;4.60;;
46643;SDS011;32371;51.032;5.816;2023-04-03T04:53:42;8.88;;;4.45;;
46643;SDS011;32371;51.032;5.816;2023-04-03T04:56:08;5.65;;;3.92;;
46643;SDS011;32371;51.032;5.816;2023-04-03T04:58:34;11.32;;;4.45;;
46643;SDS011;32371;51.032;5.816;2023-04-03T05:01:04;6.32;;;3.53;;
46643;SDS011;32371;51.032;5.816;2023-04-03T05:03:30;8.98;;;4.28;;
46643;SDS011;32371;51.032;5.816;2023-04-03T05:05:56;8.20;;;4.45;;
46643;SDS011;32371;51.032;5.816;2023-04-03T05:08:21;7.00;;;4.20;;
46643;SDS011;32371;51.032;5.816;2023-04-03T05:10:47;7.32;;;4.22;;
46643;SDS011;32371;51.032;5.816;2023-04-03T05:13:13;7.80;;;4.45;;
46643;SDS011;32371;51.032;5.816;2023-04-03T05:15:38;10.35;;;4.38;;
46643;SDS011;32371;51.032;5.816;2023-04-03T05:18:04;5.45;;;3.58;;
46643;SDS011;32371;51.032;5.816;2023-04-03T05:20:30;5.00;;;3.30;;
46643;SDS011;32371;51.032;5.816;2023-04-03T05:22:56;10.32;;;3.88;;
46643;SDS011;32371;51.032;5.816;2023-04-03T05:25:21;8.95;;;3.60;;
46643;SDS011;32371;51.032;5.816;2023-04-03T05:27:46;7.30;;;3.42;;
46643;SDS011;32371;51.032;5.816;2023-04-03T05:30:12;4.15;;;3.40;;
46643;SDS011;32371;51.032;5.816;2023-04-03T05:32:38;6.15;;;3.10;;
46643;SDS011;32371;51.032;5.816;2023-04-03T05:35:04;5.05;;;3.30;;
46643;SDS011;32371;51.032;5.816;2023-04-03T05:37:30;5.38;;;2.97;;
46643;SDS011;32371;51.032;5.816;2023-04-03T05:39:56;9.43;;;3.05;;
46643;SDS011;32371;51.032;5.816;2023-04-03T05:42:21;5.32;;;2.78;;
46643;SDS011;32371;51.032;5.816;2023-04-03T05:44:47;6.55;;;2.42;;
46643;SDS011;32371;51.032;5.816;2023-04-03T05:47:15;7.57;;;2.83;;
46643;SDS011;32371;51.032;5.816;2023-04-03T05:49:40;4.05;;;2.15;;
46643;SDS011;32371;51.032;5.816;2023-04-03T05:52:23;4.28;;;2.47;;
46643;SDS011;32371;51.032;5.816;2023-04-03T05:54:54;9.23;;;2.47;;
46643;SDS011;32371;51.032;5.816;2023-04-03T05:57:19;7.80;;;2.42;;
46643;SDS011;32371;51.032;5.816;2023-04-03T05:59:45;3.50;;;2.45;;
46643;SDS011;32371;51.032;5.816;2023-04-03T06:02:18;8.60;;;2.20;;
46643;SDS011;32371;51.032;5.816;2023-04-03T06:04:45;4.75;;;1.95;;
46643;SDS011;32371;51.032;5.816;2023-04-03T06:07:15;5.53;;;2.33;;
46643;SDS011;32371;51.032;5.816;2023-04-03T06:09:42;5.28;;;2.33;;
46643;SDS011;32371;51.032;5.816;2023-04-03T06:12:08;3.38;;;2.28;;
46643;SDS011;32371;51.032;5.816;2023-04-03T06:14:34;6.63;;;1.90;;
46643;SDS011;32371;51.032;5.816;2023-04-03T06:17:00;8.10;;;2.22;;
46643;SDS011;32371;51.032;5.816;2023-04-03T06:19:26;4.25;;;1.70;;
46643;SDS011;32371;51.032;5.816;2023-04-03T06:21:52;4.35;;;1.60;;
46643;SDS011;32371;51.032;5.816;2023-04-03T06:24:18;7.35;;;1.98;;
46643;SDS011;32371;51.032;5.816;2023-04-03T06:26:44;3.30;;;1.90;;
46643;SDS011;32371;51.032;5.816;2023-04-03T06:29:10;4.35;;;1.98;;
46643;SDS011;32371;51.032;5.816;2023-04-03T06:31:36;3.45;;;1.90;;
46643;SDS011;32371;51.032;5.816;2023-04-03T06:34:02;3.72;;;2.28;;
46643;SDS011;32371;51.032;5.816;2023-04-03T06:36:28;1.95;;;1.30;;
46643;SDS011;32371;51.032;5.816;2023-04-03T06:38:53;4.65;;;1.90;;
46643;SDS011;32371;51.032;5.816;2023-04-03T06:41:19;4.50;;;1.92;;
46643;SDS011;32371;51.032;5.816;2023-04-03T06:43:44;1.73;;;1.48;;
46643;SDS011;32371;51.032;5.816;2023-04-03T06:46:14;2.95;;;1.20;;
46643;SDS011;32371;51.032;5.816;2023-04-03T06:48:43;4.40;;;1.80;;
46643;SDS011;32371;51.032;5.816;2023-04-03T06:51:22;5.50;;;1.73;;
46643;SDS011;32371;51.032;5.816;2023-04-03T06:53:50;2.53;;;1.58;;
46643;SDS011;32371;51.032;5.816;2023-04-03T06:56:17;5.75;;;1.50;;
46643;SDS011;32371;51.032;5.816;2023-04-03T06:58:43;3.05;;;1.73;;
46643;SDS011;32371;51.032;5.816;2023-04-03T07:01:09;5.00;;;1.80;;
46643;SDS011;32371;51.032;5.816;2023-04-03T07:03:36;1.73;;;1.23;;
46643;SDS011;32371;51.032;5.816;2023-04-03T07:06:02;3.63;;;1.70;;
46643;SDS011;32371;51.032;5.816;2023-04-03T07:08:28;3.05;;;1.35;;
46643;SDS011;32371;51.032;5.816;2023-04-03T07:10:53;3.30;;;1.48;;
46643;SDS011;32371;51.032;5.816;2023-04-03T07:13:19;3.15;;;1.30;;
46643;SDS011;32371;51.032;5.816;2023-04-03T07:15:44;3.60;;;1.85;;
46643;SDS011;32371;51.032;5.816;2023-04-03T07:18:10;6.05;;;1.80;;
46643;SDS011;32371;51.032;5.816;2023-04-03T07:20:35;6.38;;;1.55;;
46643;SDS011;32371;51.032;5.816;2023-04-03T07:23:01;9.80;;;2.45;;
46643;SDS011;32371;51.032;5.816;2023-04-03T07:25:27;2.95;;;1.90;;
46643;SDS011;32371;51.032;5.816;2023-04-03T07:27:52;4.82;;;1.77;;
46643;SDS011;32371;51.032;5.816;2023-04-03T07:30:19;2.28;;;1.23;;
46643;SDS011;32371;51.032;5.816;2023-04-03T07:32:45;7.35;;;2.05;;
46643;SDS011;32371;51.032;5.816;2023-04-03T07:35:10;3.25;;;1.58;;
46643;SDS011;32371;51.032;5.816;2023-04-03T07:37:36;3.50;;;1.60;;
46643;SDS011;32371;51.032;5.816;2023-04-03T07:40:01;7.07;;;2.10;;
46643;SDS011;32371;51.032;5.816;2023-04-03T07:42:28;4.10;;;1.42;;
46643;SDS011;32371;51.032;5.816;2023-04-03T07:44:54;6.72;;;1.55;;
46643;SDS011;32371;51.032;5.816;2023-04-03T07:47:19;3.10;;;1.52;;
46643;SDS011;32371;51.032;5.816;2023-04-03T07:49:46;1.95;;;1.00;;
46643;SDS011;32371;51.032;5.816;2023-04-03T07:52:12;2.65;;;1.50;;
46643;SDS011;32371;51.032;5.816;2023-04-03T07:54:39;3.05;;;1.42;;
46643;SDS011;32371;51.032;5.816;2023-04-03T07:57:05;2.63;;;1.45;;
46643;SDS011;32371;51.032;5.816;2023-04-03T07:59:30;2.63;;;1.48;;
46643;SDS011;32371;51.032;5.816;2023-04-03T08:01:56;4.03;;;1.88;;
46643;SDS011;32371;51.032;5.816;2023-04-03T08:04:21;4.45;;;1.75;;
46643;SDS011;32371;51.032;5.816;2023-04-03T08:06:47;5.20;;;1.80;;
46643;SDS011;32371;51.032;5.816;2023-04-03T08:09:13;5.20;;;1.52;;
46643;SDS011;32371;51.032;5.816;2023-04-03T08:11:40;3.97;;;1.55;;
46643;SDS011;32371;51.032;5.816;2023-04-03T08:14:05;1.92;;;1.25;;
46643;SDS011;32371;51.032;5.816;2023-04-03T08:16:31;2.92;;;1.40;;
46643;SDS011;32371;51.032;5.816;2023-04-03T08:18:56;2.50;;;1.20;;
46643;SDS011;32371;51.032;5.816;2023-04-03T08:21:22;7.32;;;1.88;;
46643;SDS011;32371;51.032;5.816;2023-04-03T08:23:48;5.07;;;2.17;;
46643;SDS011;32371;51.032;5.816;2023-04-03T08:26:16;3.40;;;1.27;;
46643;SDS011;32371;51.032;5.816;2023-04-03T08:28:42;1.40;;;1.27;;
46643;SDS011;32371;51.032;5.816;2023-04-03T08:31:10;5.45;;;1.13;;
46643;SDS011;32371;51.032;5.816;2023-04-03T08:33:38;5.25;;;1.42;;
46643;SDS011;32371;51.032;5.816;2023-04-03T08:36:04;2.88;;;1.17;;
46643;SDS011;32371;51.032;5.816;2023-04-03T08:38:31;6.10;;;1.30;;
46643;SDS011;32371;51.032;5.816;2023-04-03T08:41:01;4.80;;;1.30;;
46643;SDS011;32371;51.032;5.816;2023-04-03T08:46:26;2.45;;;0.93;;
46643;SDS011;32371;51.032;5.816;2023-04-03T08:49:04;2.88;;;1.05;;
46643;SDS011;32371;51.032;5.816;2023-04-03T08:51:35;2.43;;;0.93;;
46643;SDS011;32371;51.032;5.816;2023-04-03T08:54:05;5.63;;;1.45;;
46643;SDS011;32371;51.032;5.816;2023-04-03T08:56:34;1.88;;;0.90;;
46643;SDS011;32371;51.032;5.816;2023-04-03T08:59:00;5.57;;;1.23;;
46643;SDS011;32371;51.032;5.816;2023-04-03T09:01:34;3.70;;;1.10;;
46643;SDS011;32371;51.032;5.816;2023-04-03T09:04:01;1.85;;;0.80;;
46643;SDS011;32371;51.032;5.816;2023-04-03T09:06:29;1.95;;;0.68;;
46643;SDS011;32371;51.032;5.816;2023-04-03T09:17:03;2.75;;;0.88;;
46643;SDS011;32371;51.032;5.816;2023-04-03T09:24:42;1.17;;;0.55;;
46643;SDS011;32371;51.032;5.816;2023-04-03T09:27:10;2.47;;;0.95;;
46643;SDS011;32371;51.032;5.816;2023-04-03T09:29:40;1.27;;;0.50;;
46643;SDS011;32371;51.032;5.816;2023-04-03T09:34:57;1.40;;;0.63;;
46643;SDS011;32371;51.032;5.816;2023-04-03T09:40:04;1.13;;;0.30;;
46643;SDS011;32371;51.032;5.816;2023-04-03T09:42:31;0.77;;;0.40;;
46643;SDS011;32371;51.032;5.816;2023-04-03T09:44:58;2.38;;;0.85;;
46643;SDS011;32371;51.032;5.816;2023-04-03T09:47:28;2.80;;;1.20;;
46643;SDS011;32371;51.032;5.816;2023-04-03T09:52:54;2.55;;;0.68;;
46643;SDS011;32371;51.032;5.816;2023-04-03T09:55:22;1.75;;;0.63;;
46643;SDS011;32371;51.032;5.816;2023-04-03T10:00:40;1.85;;;0.50;;
46643;SDS011;32371;51.032;5.816;2023-04-03T10:03:05;1.02;;;0.68;;
46643;SDS011;32371;51.032;5.816;2023-04-03T10:05:57;0.60;;;0.50;;
46643;SDS011;32371;51.032;5.816;2023-04-03T10:08:27;0.60;;;0.45;;
46643;SDS011;32371;51.032;5.816;2023-04-03T10:13:35;4.05;;;0.70;;
46643;SDS011;32371;51.032;5.816;2023-04-03T10:21:29;2.20;;;0.57;;
46643;SDS011;32371;51.032;5.816;2023-04-03T10:24:16;1.65;;;0.88;;
46643;SDS011;32371;51.032;5.816;2023-04-03T10:29:31;1.83;;;0.60;;
46643;SDS011;32371;51.032;5.816;2023-04-03T10:32:14;1.60;;;0.60;;
46643;SDS011;32371;51.032;5.816;2023-04-03T10:43:21;0.73;;;0.63;;
46643;SDS011;32371;51.032;5.816;2023-04-03T10:50:53;1.02;;;0.60;;
46643;SDS011;32371;51.032;5.816;2023-04-03T10:58:58;1.98;;;0.57;;
46643;SDS011;32371;51.032;5.816;2023-04-03T11:01:30;2.50;;;0.60;;
46643;SDS011;32371;51.032;5.816;2023-04-03T11:03:57;1.65;;;0.70;;
46643;SDS011;32371;51.032;5.816;2023-04-03T11:06:24;1.52;;;0.65;;
46643;SDS011;32371;51.032;5.816;2023-04-03T11:08:55;2.20;;;0.55;;
46643;SDS011;32371;51.032;5.816;2023-04-03T11:11:30;3.88;;;0.70;;
46643;SDS011;32371;51.032;5.816;2023-04-03T11:14:01;2.55;;;0.60;;
46643;SDS011;32371;51.032;5.816;2023-04-03T11:16:40;3.20;;;0.70;;
46643;SDS011;32371;51.032;5.816;2023-04-03T11:19:17;1.95;;;0.70;;
46643;SDS011;32371;51.032;5.816;2023-04-03T11:22:33;1.55;;;0.68;;
46643;SDS011;32371;51.032;5.816;2023-04-03T11:24:42;3.35;;;0.90;;
46643;SDS011;32371;51.032;5.816;2023-04-03T11:27:37;2.13;;;0.73;;
46643;SDS011;32371;51.032;5.816;2023-04-03T11:30:00;0.77;;;0.70;;
46643;SDS011;32371;51.032;5.816;2023-04-03T11:35:08;2.38;;;0.60;;
46643;SDS011;32371;51.032;5.816;2023-04-03T11:37:38;0.82;;;0.50;;
46643;SDS011;32371;51.032;5.816;2023-04-03T11:40:06;1.45;;;0.60;;
46643;SDS011;32371;51.032;5.816;2023-04-03T11:50:46;2.25;;;0.90;;
46643;SDS011;32371;51.032;5.816;2023-04-03T11:55:42;3.58;;;0.80;;
46643;SDS011;32371;51.032;5.816;2023-04-03T12:16:19;3.97;;;0.90;;
46643;SDS011;32371;51.032;5.816;2023-04-03T12:26:41;2.63;;;0.98;;
46643;SDS011;32371;51.032;5.816;2023-04-03T12:32:05;2.25;;;1.17;;
46643;SDS011;32371;51.032;5.816;2023-04-03T12:34:44;2.90;;;1.38;;
46643;SDS011;32371;51.032;5.816;2023-04-03T12:47:40;1.95;;;0.73;;
46643;SDS011;32371;51.032;5.816;2023-04-03T12:53:12;2.78;;;1.10;;
46643;SDS011;32371;51.032;5.816;2023-04-03T12:55:40;1.13;;;0.77;;
46643;SDS011;32371;51.032;5.816;2023-04-03T12:58:15;0.75;;;0.50;;
46643;SDS011;32371;51.032;5.816;2023-04-03T13:00:58;3.80;;;0.70;;
46643;SDS011;32371;51.032;5.816;2023-04-03T13:03:26;1.77;;;0.90;;
46643;SDS011;32371;51.032;5.816;2023-04-03T13:05:52;2.25;;;0.82;;
46643;SDS011;32371;51.032;5.816;2023-04-03T13:08:25;1.25;;;0.70;;
46643;SDS011;32371;51.032;5.816;2023-04-03T13:11:08;0.82;;;0.60;;
46643;SDS011;32371;51.032;5.816;2023-04-03T13:13:35;1.65;;;0.80;;
46643;SDS011;32371;51.032;5.816;2023-04-03T13:16:07;2.33;;;0.60;;
46643;SDS011;32371;51.032;5.816;2023-04-03T13:18:35;2.47;;;0.70;;
46643;SDS011;32371;51.032;5.816;2023-04-03T13:21:05;2.05;;;0.70;;
46643;SDS011;32371;51.032;5.816;2023-04-03T13:23:43;1.25;;;0.93;;
46643;SDS011;32371;51.032;5.816;2023-04-03T13:26:10;3.38;;;0.95;;
46643;SDS011;32371;51.032;5.816;2023-04-03T13:28:36;3.25;;;1.02;;
46643;SDS011;32371;51.032;5.816;2023-04-03T13:33:39;1.20;;;0.77;;
46643;SDS011;32371;51.032;5.816;2023-04-03T13:36:21;2.92;;;0.70;;
46643;SDS011;32371;51.032;5.816;2023-04-03T13:39:21;1.85;;;0.65;;
46643;SDS011;32371;51.032;5.816;2023-04-03T13:41:40;2.00;;;0.45;;
46643;SDS011;32371;51.032;5.816;2023-04-03T13:46:48;4.97;;;0.77;;
46643;SDS011;32371;51.032;5.816;2023-04-03T13:52:17;2.45;;;0.82;;
46643;SDS011;32371;51.032;5.816;2023-04-03T13:54:47;1.75;;;0.90;;
46643;SDS011;32371;51.032;5.816;2023-04-03T13:57:18;4.22;;;0.98;;
46643;SDS011;32371;51.032;5.816;2023-04-03T13:59:43;1.85;;;0.63;;
46643;SDS011;32371;51.032;5.816;2023-04-03T14:02:28;2.47;;;0.98;;
46643;SDS011;32371;51.032;5.816;2023-04-03T14:04:56;1.15;;;0.60;;
46643;SDS011;32371;51.032;5.816;2023-04-03T14:07:27;1.85;;;0.47;;
46643;SDS011;32371;51.032;5.816;2023-04-03T14:09:54;3.67;;;0.82;;
46643;SDS011;32371;51.032;5.816;2023-04-03T14:14:45;1.05;;;0.50;;
46643;SDS011;32371;51.032;5.816;2023-04-03T14:17:15;2.38;;;0.60;;
46643;SDS011;32371;51.032;5.816;2023-04-03T14:19:43;3.40;;;0.70;;
46643;SDS011;32371;51.032;5.816;2023-04-03T14:22:19;0.60;;;0.32;;
46643;SDS011;32371;51.032;5.816;2023-04-03T14:24:53;1.70;;;0.68;;
46643;SDS011;32371;51.032;5.816;2023-04-03T14:27:20;1.33;;;0.70;;
46643;SDS011;32371;51.032;5.816;2023-04-03T14:29:47;2.35;;;0.52;;
46643;SDS011;32371;51.032;5.816;2023-04-03T14:32:14;3.47;;;1.05;;
46643;SDS011;32371;51.032;5.816;2023-04-03T14:34:40;0.30;;;0.30;;
46643;SDS011;32371;51.032;5.816;2023-04-03T14:37:15;1.75;;;0.50;;
46643;SDS011;32371;51.032;5.816;2023-04-03T14:39:43;2.22;;;0.70;;
46643;SDS011;32371;51.032;5.816;2023-04-03T14:42:12;0.75;;;0.50;;
46643;SDS011;32371;51.032;5.816;2023-04-03T14:44:39;1.77;;;0.73;;
46643;SDS011;32371;51.032;5.816;2023-04-03T14:47:08;2.15;;;0.70;;
46643;SDS011;32371;51.032;5.816;2023-04-03T14:49:35;4.35;;;0.65;;
46643;SDS011;32371;51.032;5.816;2023-04-03T14:52:00;3.72;;;0.55;;
46643;SDS011;32371;51.032;5.816;2023-04-03T14:54:26;3.95;;;0.90;;
46643;SDS011;32371;51.032;5.816;2023-04-03T14:56:53;3.30;;;0.82;;
46643;SDS011;32371;51.032;5.816;2023-04-03T14:59:20;1.67;;;0.90;;
46643;SDS011;32371;51.032;5.816;2023-04-03T15:01:46;2.58;;;0.60;;
46643;SDS011;32371;51.032;5.816;2023-04-03T15:04:13;0.47;;;0.35;;
46643;SDS011;32371;51.032;5.816;2023-04-03T15:06:39;0.40;;;0.40;;
46643;SDS011;32371;51.032;5.816;2023-04-03T15:09:05;1.55;;;0.63;;
46643;SDS011;32371;51.032;5.816;2023-04-03T15:11:37;0.50;;;0.50;;
46643;SDS011;32371;51.032;5.816;2023-04-03T15:14:03;1.92;;;0.70;;
46643;SDS011;32371;51.032;5.816;2023-04-03T15:16:28;1.27;;;0.50;;
46643;SDS011;32371;51.032;5.816;2023-04-03T15:18:53;3.97;;;0.98;;
46643;SDS011;32371;51.032;5.816;2023-04-03T15:21:19;1.30;;;0.60;;
46643;SDS011;32371;51.032;5.816;2023-04-03T15:23:44;0.55;;;0.43;;
46643;SDS011;32371;51.032;5.816;2023-04-03T15:26:10;2.03;;;0.50;;
46643;SDS011;32371;51.032;5.816;2023-04-03T15:28:37;3.72;;;0.60;;
46643;SDS011;32371;51.032;5.816;2023-04-03T15:31:04;2.10;;;0.95;;
46643;SDS011;32371;51.032;5.816;2023-04-03T15:33:31;2.35;;;0.45;;
46643;SDS011;32371;51.032;5.816;2023-04-03T15:35:57;3.10;;;0.60;;
46643;SDS011;32371;51.032;5.816;2023-04-03T15:38:23;2.63;;;0.70;;
46643;SDS011;32371;51.032;5.816;2023-04-03T15:40:48;3.15;;;0.55;;
46643;SDS011;32371;51.032;5.816;2023-04-03T15:43:14;3.75;;;1.38;;
46643;SDS011;32371;51.032;5.816;2023-04-03T15:45:40;1.00;;;0.40;;
46643;SDS011;32371;51.032;5.816;2023-04-03T15:48:06;0.85;;;0.30;;
46643;SDS011;32371;51.032;5.816;2023-04-03T15:50:32;0.70;;;0.57;;
46643;SDS011;32371;51.032;5.816;2023-04-03T15:52:58;1.30;;;0.60;;
46643;SDS011;32371;51.032;5.816;2023-04-03T15:55:26;1.40;;;0.52;;
46643;SDS011;32371;51.032;5.816;2023-04-03T15:57:54;1.38;;;0.45;;
46643;SDS011;32371;51.032;5.816;2023-04-03T16:00:20;0.73;;;0.50;;
46643;SDS011;32371;51.032;5.816;2023-04-03T16:02:46;1.42;;;0.60;;
46643;SDS011;32371;51.032;5.816;2023-04-03T16:05:13;1.55;;;0.68;;
46643;SDS011;32371;51.032;5.816;2023-04-03T16:07:39;1.70;;;0.85;;
46643;SDS011;32371;51.032;5.816;2023-04-03T16:10:05;1.50;;;1.00;;
46643;SDS011;32371;51.032;5.816;2023-04-03T16:12:31;1.95;;;0.60;;
46643;SDS011;32371;51.032;5.816;2023-04-03T16:14:57;14.63;;;1.05;;
46643;SDS011;32371;51.032;5.816;2023-04-03T16:17:22;4.50;;;0.68;;
46643;SDS011;32371;51.032;5.816;2023-04-03T16:19:47;2.78;;;1.15;;
46643;SDS011;32371;51.032;5.816;2023-04-03T16:22:13;1.92;;;0.70;;
46643;SDS011;32371;51.032;5.816;2023-04-03T16:24:38;2.22;;;0.80;;
46643;SDS011;32371;51.032;5.816;2023-04-03T16:27:04;2.42;;;0.50;;
46643;SDS011;32371;51.032;5.816;2023-04-03T16:29:29;4.50;;;0.77;;
46643;SDS011;32371;51.032;5.816;2023-04-03T16:31:55;0.82;;;0.65;;
46643;SDS011;32371;51.032;5.816;2023-04-03T16:34:21;2.45;;;0.63;;
46643;SDS011;32371;51.032;5.816;2023-04-03T16:36:47;1.80;;;1.10;;
46643;SDS011;32371;51.032;5.816;2023-04-03T16:39:12;0.88;;;0.32;;
46643;SDS011;32371;51.032;5.816;2023-04-03T16:41:37;2.40;;;0.68;;
46643;SDS011;32371;51.032;5.816;2023-04-03T16:44:03;1.42;;;0.80;;
46643;SDS011;32371;51.032;5.816;2023-04-03T16:46:28;2.20;;;0.50;;
46643;SDS011;32371;51.032;5.816;2023-04-03T16:48:54;2.97;;;0.55;;
46643;SDS011;32371;51.032;5.816;2023-04-03T16:51:19;2.95;;;0.70;;
46643;SDS011;32371;51.032;5.816;2023-04-03T16:53:44;3.55;;;0.68;;
46643;SDS011;32371;51.032;5.816;2023-04-03T16:56:10;1.38;;;0.57;;
46643;SDS011;32371;51.032;5.816;2023-04-03T16:58:35;1.42;;;0.50;;